sensor_id;sensor_type;location;lat;lon;timestamp;pressure;altitude;pressure_sealevel;temperature;humidity
43621;BME280;29213;50.770;7.298;2022-11-24T00:01:11;99787.66;;;4.28;63.61
43621;BME280;29213;50.770;7.298;2022-11-24T00:03:37;99794.47;;;4.40;63.70
43621;BME280;29213;50.770;7.298;2022-11-24T00:06:13;99803.63;;;4.36;63.50
43621;BME280;29213;50.770;7.298;2022-11-24T00:08:41;99761.78;;;4.13;63.60
43621;BME280;29213;50.770;7.298;2022-11-24T00:11:09;99703.03;;;3.73;63.80
43621;BME280;29213;50.770;7.298;2022-11-24T00:13:35;99805.97;;;4.39;63.83
43621;BME280;29213;50.770;7.298;2022-11-24T00:16:12;99857.00;;;4.68;63.73
43621;BME280;29213;50.770;7.298;2022-11-24T00:18:39;99851.06;;;4.66;63.77
43621;BME280;29213;50.770;7.298;2022-11-24T00:21:06;99850.22;;;4.65;63.94
43621;BME280;29213;50.770;7.298;2022-11-24T00:23:32;99790.88;;;4.22;63.99
43621;BME280;29213;50.770;7.298;2022-11-24T00:26:12;99783.94;;;4.21;64.16
43621;BME280;29213;50.770;7.298;2022-11-24T00:28:38;99845.06;;;4.64;64.34
43621;BME280;29213;50.770;7.298;2022-11-24T00:31:13;99828.97;;;4.47;64.38
43621;BME280;29213;50.770;7.298;2022-11-24T00:33:39;99791.41;;;4.25;64.30
43621;BME280;29213;50.770;7.298;2022-11-24T00:36:04;99730.47;;;3.91;65.39
43621;BME280;29213;50.770;7.298;2022-11-24T00:38:30;99848.94;;;4.69;65.44
43621;BME280;29213;50.770;7.298;2022-11-24T00:40:55;99857.28;;;4.75;65.04
43621;BME280;29213;50.770;7.298;2022-11-24T00:43:21;99818.06;;;4.52;65.47
43621;BME280;29213;50.770;7.298;2022-11-24T00:45:46;99816.22;;;4.52;65.96
43621;BME280;29213;50.770;7.298;2022-11-24T00:48:12;99790.56;;;4.35;66.20
43621;BME280;29213;50.770;7.298;2022-11-24T00:50:37;99850.31;;;4.84;66.38
43621;BME280;29213;50.770;7.298;2022-11-24T00:53:03;99788.59;;;4.47;66.00
43621;BME280;29213;50.770;7.298;2022-11-24T00:55:28;99803.72;;;4.64;65.92
43621;BME280;29213;50.770;7.298;2022-11-24T00:57:53;99798.13;;;4.67;66.14
43621;BME280;29213;50.770;7.298;2022-11-24T01:00:19;99768.06;;;4.50;66.06
43621;BME280;29213;50.770;7.298;2022-11-24T01:02:44;99809.34;;;4.79;65.79
43621;BME280;29213;50.770;7.298;2022-11-24T01:05:10;99813.50;;;4.82;65.84
43621;BME280;29213;50.770;7.298;2022-11-24T01:07:35;99791.06;;;4.68;65.76
43621;BME280;29213;50.770;7.298;2022-11-24T01:10:01;99875.75;;;5.13;65.52
43621;BME280;29213;50.770;7.298;2022-11-24T01:12:27;99883.34;;;5.26;65.82
43621;BME280;29213;50.770;7.298;2022-11-24T01:14:53;99886.50;;;5.29;65.54
43621;BME280;29213;50.770;7.298;2022-11-24T01:17:18;99825.13;;;4.89;65.20
43621;BME280;29213;50.770;7.298;2022-11-24T01:19:44;99865.72;;;5.16;65.18
43621;BME280;29213;50.770;7.298;2022-11-24T01:22:12;99863.53;;;5.12;65.17
43621;BME280;29213;50.770;7.298;2022-11-24T01:24:37;99768.88;;;4.51;65.23
43621;BME280;29213;50.770;7.298;2022-11-24T01:27:02;99884.31;;;5.25;65.54
43621;BME280;29213;50.770;7.298;2022-11-24T01:29:28;99910.53;;;5.36;65.35
43621;BME280;29213;50.770;7.298;2022-11-24T01:31:53;99884.31;;;5.25;65.58
43621;BME280;29213;50.770;7.298;2022-11-24T01:34:19;99865.19;;;5.13;65.70
43621;BME280;29213;50.770;7.298;2022-11-24T01:36:44;99907.19;;;5.34;66.07
43621;BME280;29213;50.770;7.298;2022-11-24T01:39:09;99913.31;;;5.34;66.13
43621;BME280;29213;50.770;7.298;2022-11-24T01:41:35;99860.50;;;5.06;66.12
43621;BME280;29213;50.770;7.298;2022-11-24T01:44:00;99883.38;;;5.16;66.91
43621;BME280;29213;50.770;7.298;2022-11-24T01:46:45;99915.34;;;5.41;67.64
43621;BME280;29213;50.770;7.298;2022-11-24T01:49:16;99913.25;;;5.44;67.77
43621;BME280;29213;50.770;7.298;2022-11-24T01:51:48;99924.34;;;5.48;68.73
43621;BME280;29213;50.770;7.298;2022-11-24T01:54:37;99933.50;;;5.54;68.73
43621;BME280;29213;50.770;7.298;2022-11-24T01:57:09;99863.91;;;5.17;68.98
43621;BME280;29213;50.770;7.298;2022-11-24T01:59:35;99842.41;;;5.12;68.85
43621;BME280;29213;50.770;7.298;2022-11-24T02:02:01;99874.09;;;5.40;68.52
43621;BME280;29213;50.770;7.298;2022-11-24T02:04:29;99926.56;;;5.81;68.43
43621;BME280;29213;50.770;7.298;2022-11-24T02:06:58;99832.78;;;5.20;68.25
43621;BME280;29213;50.770;7.298;2022-11-24T02:09:36;99880.16;;;5.50;67.85
43621;BME280;29213;50.770;7.298;2022-11-24T02:12:05;99939.94;;;5.97;67.45
43621;BME280;29213;50.770;7.298;2022-11-24T02:14:30;99891.72;;;5.67;67.25
43621;BME280;29213;50.770;7.298;2022-11-24T02:16:58;99926.72;;;5.97;67.00
43621;BME280;29213;50.770;7.298;2022-11-24T02:19:43;99924.22;;;5.96;66.58
43621;BME280;29213;50.770;7.298;2022-11-24T02:22:25;99885.53;;;5.76;66.53
43621;BME280;29213;50.770;7.298;2022-11-24T02:25:06;99818.25;;;5.34;66.43
43621;BME280;29213;50.770;7.298;2022-11-24T02:27:37;99938.59;;;6.11;66.24
43621;BME280;29213;50.770;7.298;2022-11-24T02:30:03;99873.47;;;5.74;66.40
43621;BME280;29213;50.770;7.298;2022-11-24T02:32:29;99733.75;;;4.88;66.26
43621;BME280;29213;50.770;7.298;2022-11-24T02:35:00;99885.81;;;5.73;66.29
43621;BME280;29213;50.770;7.298;2022-11-24T02:37:26;99884.09;;;5.82;66.13
43621;BME280;29213;50.770;7.298;2022-11-24T02:39:52;99859.88;;;5.69;66.15
43621;BME280;29213;50.770;7.298;2022-11-24T02:42:17;99951.13;;;6.27;66.17
43621;BME280;29213;50.770;7.298;2022-11-24T02:44:48;99910.69;;;5.99;66.17
43621;BME280;29213;50.770;7.298;2022-11-24T02:47:15;99893.91;;;5.90;66.51
43621;BME280;29213;50.770;7.298;2022-11-24T02:49:41;99898.69;;;5.86;66.48
43621;BME280;29213;50.770;7.298;2022-11-24T02:52:06;99940.59;;;5.99;67.09
43621;BME280;29213;50.770;7.298;2022-11-24T02:54:32;99836.88;;;5.33;66.92
43621;BME280;29213;50.770;7.298;2022-11-24T02:56:58;99827.69;;;5.37;67.37
43621;BME280;29213;50.770;7.298;2022-11-24T02:59:23;99948.94;;;6.23;67.20
43621;BME280;29213;50.770;7.298;2022-11-24T03:01:49;99957.53;;;6.25;66.99
43621;BME280;29213;50.770;7.298;2022-11-24T03:04:14;99967.22;;;6.34;66.81
43621;BME280;29213;50.770;7.298;2022-11-24T03:06:40;99890.66;;;5.96;66.24
43621;BME280;29213;50.770;7.298;2022-11-24T03:09:07;99869.75;;;5.85;66.04
43621;BME280;29213;50.770;7.298;2022-11-24T03:11:33;99858.50;;;5.83;65.77
43621;BME280;29213;50.770;7.298;2022-11-24T03:13:58;99889.41;;;6.00;65.88
43621;BME280;29213;50.770;7.298;2022-11-24T03:16:23;99891.81;;;6.12;65.40
43621;BME280;29213;50.770;7.298;2022-11-24T03:18:52;99896.09;;;6.13;65.56
43621;BME280;29213;50.770;7.298;2022-11-24T03:21:18;99938.50;;;6.39;65.67
43621;BME280;29213;50.770;7.298;2022-11-24T03:23:43;99674.31;;;4.66;65.77
43621;BME280;29213;50.770;7.298;2022-11-24T03:26:11;99951.56;;;6.41;65.50
43621;BME280;29213;50.770;7.298;2022-11-24T03:28:37;99940.16;;;6.22;65.82
43621;BME280;29213;50.770;7.298;2022-11-24T03:31:02;99957.78;;;6.32;66.10
43621;BME280;29213;50.770;7.298;2022-11-24T03:33:28;99898.31;;;5.99;66.09
43621;BME280;29213;50.770;7.298;2022-11-24T03:35:54;99807.31;;;5.47;66.34
43621;BME280;29213;50.770;7.298;2022-11-24T03:38:19;99864.78;;;5.82;65.99
43621;BME280;29213;50.770;7.298;2022-11-24T03:40:44;99885.75;;;6.01;66.07
43621;BME280;29213;50.770;7.298;2022-11-24T03:43:10;99862.19;;;5.90;66.13
43621;BME280;29213;50.770;7.298;2022-11-24T03:45:35;99882.47;;;5.99;66.18
43621;BME280;29213;50.770;7.298;2022-11-24T03:48:01;99938.41;;;6.31;65.65
43621;BME280;29213;50.770;7.298;2022-11-24T03:50:26;99942.44;;;6.35;66.22
43621;BME280;29213;50.770;7.298;2022-11-24T03:52:51;99908.75;;;6.19;65.86
43621;BME280;29213;50.770;7.298;2022-11-24T03:55:17;99897.25;;;6.10;66.16
43621;BME280;29213;50.770;7.298;2022-11-24T03:57:43;99963.16;;;6.58;65.71
43621;BME280;29213;50.770;7.298;2022-11-24T04:00:09;99941.81;;;6.41;65.56
43621;BME280;29213;50.770;7.298;2022-11-24T04:02:34;99937.53;;;6.40;65.65
43621;BME280;29213;50.770;7.298;2022-11-24T04:05:00;99987.25;;;6.73;65.63
43621;BME280;29213;50.770;7.298;2022-11-24T04:07:25;99987.25;;;6.73;65.42
43621;BME280;29213;50.770;7.298;2022-11-24T04:09:50;99888.97;;;6.05;65.15
43621;BME280;29213;50.770;7.298;2022-11-24T04:12:16;99973.06;;;6.56;65.98
43621;BME280;29213;50.770;7.298;2022-11-24T04:15:13;99940.84;;;6.42;65.87
43621;BME280;29213;50.770;7.298;2022-11-24T04:17:39;99978.28;;;6.66;65.58
43621;BME280;29213;50.770;7.298;2022-11-24T04:20:05;99978.78;;;6.69;65.68
43621;BME280;29213;50.770;7.298;2022-11-24T04:22:30;99957.97;;;6.48;65.46
43621;BME280;29213;50.770;7.298;2022-11-24T04:24:56;99836.47;;;5.74;65.23
43621;BME280;29213;50.770;7.298;2022-11-24T04:27:21;99909.19;;;6.14;65.19
43621;BME280;29213;50.770;7.298;2022-11-24T04:29:47;99986.88;;;6.68;65.12
43621;BME280;29213;50.770;7.298;2022-11-24T04:32:12;99993.25;;;6.75;65.16
43621;BME280;29213;50.770;7.298;2022-11-24T04:34:38;99958.94;;;6.47;65.04
43621;BME280;29213;50.770;7.298;2022-11-24T04:37:03;99966.56;;;6.50;65.32
43621;BME280;29213;50.770;7.298;2022-11-24T04:39:29;99969.88;;;6.52;65.08
43621;BME280;29213;50.770;7.298;2022-11-24T04:41:54;100004.88;;;6.64;65.13
43621;BME280;29213;50.770;7.298;2022-11-24T04:44:19;99902.31;;;6.03;65.23
43621;BME280;29213;50.770;7.298;2022-11-24T04:46:45;99976.16;;;6.51;65.71
43621;BME280;29213;50.770;7.298;2022-11-24T04:49:10;99996.13;;;6.64;65.58
43621;BME280;29213;50.770;7.298;2022-11-24T04:51:39;99961.03;;;6.43;65.51
43621;BME280;29213;50.770;7.298;2022-11-24T04:54:06;100014.56;;;6.74;65.09
43621;BME280;29213;50.770;7.298;2022-11-24T04:56:32;100021.38;;;6.76;65.35
43621;BME280;29213;50.770;7.298;2022-11-24T04:58:58;99993.53;;;6.54;65.03
43621;BME280;29213;50.770;7.298;2022-11-24T05:01:24;99854.59;;;5.69;65.43
43621;BME280;29213;50.770;7.298;2022-11-24T05:03:52;99880.31;;;5.85;65.20
43621;BME280;29213;50.770;7.298;2022-11-24T05:06:18;99909.88;;;5.98;65.27
43621;BME280;29213;50.770;7.298;2022-11-24T05:08:46;100036.53;;;6.74;65.29
43621;BME280;29213;50.770;7.298;2022-11-24T05:11:12;99996.50;;;6.51;65.55
43621;BME280;29213;50.770;7.298;2022-11-24T05:13:38;99984.69;;;6.45;65.52
43621;BME280;29213;50.770;7.298;2022-11-24T05:16:03;99951.06;;;6.19;65.42
43621;BME280;29213;50.770;7.298;2022-11-24T05:18:29;100003.13;;;6.37;65.22
43621;BME280;29213;50.770;7.298;2022-11-24T05:20:56;99990.84;;;6.36;65.23
43621;BME280;29213;50.770;7.298;2022-11-24T05:23:22;99920.06;;;5.93;65.58
43621;BME280;29213;50.770;7.298;2022-11-24T05:25:47;99996.16;;;6.36;65.23
43621;BME280;29213;50.770;7.298;2022-11-24T05:28:13;99964.94;;;6.21;65.30
43621;BME280;29213;50.770;7.298;2022-11-24T05:30:38;100050.47;;;6.76;65.04
43621;BME280;29213;50.770;7.298;2022-11-24T05:33:10;99960.94;;;6.17;65.21
43621;BME280;29213;50.770;7.298;2022-11-24T05:35:36;99974.31;;;6.15;65.20
43621;BME280;29213;50.770;7.298;2022-11-24T05:38:02;100055.25;;;6.73;65.37
43621;BME280;29213;50.770;7.298;2022-11-24T05:40:29;100010.75;;;6.40;65.43
43621;BME280;29213;50.770;7.298;2022-11-24T05:42:54;100002.00;;;6.39;66.32
43621;BME280;29213;50.770;7.298;2022-11-24T05:45:20;99970.75;;;6.25;65.44
43621;BME280;29213;50.770;7.298;2022-11-24T05:47:47;100059.59;;;6.82;65.58
43621;BME280;29213;50.770;7.298;2022-11-24T05:50:14;100008.66;;;6.43;65.12
43621;BME280;29213;50.770;7.298;2022-11-24T05:52:40;99982.00;;;6.27;65.49
43621;BME280;29213;50.770;7.298;2022-11-24T05:55:06;100079.97;;;6.81;65.44
43621;BME280;29213;50.770;7.298;2022-11-24T05:57:33;100077.00;;;6.85;65.55
43621;BME280;29213;50.770;7.298;2022-11-24T05:59:58;100042.78;;;6.65;65.47
43621;BME280;29213;50.770;7.298;2022-11-24T06:02:24;100079.66;;;6.85;65.37
43621;BME280;29213;50.770;7.298;2022-11-24T06:04:50;100054.13;;;6.75;65.67
43621;BME280;29213;50.770;7.298;2022-11-24T06:07:15;100025.47;;;6.42;65.40
43621;BME280;29213;50.770;7.298;2022-11-24T06:09:41;100083.56;;;6.80;65.62
43621;BME280;29213;50.770;7.298;2022-11-24T06:12:10;100062.56;;;6.61;65.83
43621;BME280;29213;50.770;7.298;2022-11-24T06:14:36;100094.47;;;6.77;67.13
43621;BME280;29213;50.770;7.298;2022-11-24T06:17:02;100034.34;;;6.33;67.11
43621;BME280;29213;50.770;7.298;2022-11-24T06:19:28;100030.06;;;6.22;67.15
43621;BME280;29213;50.770;7.298;2022-11-24T06:21:53;100070.72;;;6.49;67.51
43621;BME280;29213;50.770;7.298;2022-11-24T06:24:19;100075.16;;;6.49;67.12
43621;BME280;29213;50.770;7.298;2022-11-24T06:26:44;100046.53;;;6.44;67.10
43621;BME280;29213;50.770;7.298;2022-11-24T06:29:10;100088.28;;;6.68;67.32
43621;BME280;29213;50.770;7.298;2022-11-24T06:31:36;100092.28;;;6.54;67.23
43621;BME280;29213;50.770;7.298;2022-11-24T06:34:04;100121.72;;;6.88;67.49
43621;BME280;29213;50.770;7.298;2022-11-24T06:36:30;100003.56;;;6.14;67.18
43621;BME280;29213;50.770;7.298;2022-11-24T06:38:55;100138.66;;;6.95;66.84
43621;BME280;29213;50.770;7.298;2022-11-24T06:41:21;100097.59;;;6.73;67.36
43621;BME280;29213;50.770;7.298;2022-11-24T06:43:46;100109.91;;;6.82;66.84
43621;BME280;29213;50.770;7.298;2022-11-24T06:46:12;100136.53;;;6.99;67.35
43621;BME280;29213;50.770;7.298;2022-11-24T06:48:37;100135.72;;;6.98;67.12
43621;BME280;29213;50.770;7.298;2022-11-24T06:51:07;100015.34;;;6.20;67.51
43621;BME280;29213;50.770;7.298;2022-11-24T06:53:36;100084.47;;;6.53;67.42
43621;BME280;29213;50.770;7.298;2022-11-24T06:56:04;100156.91;;;6.98;67.51
43621;BME280;29213;50.770;7.298;2022-11-24T06:58:30;100081.56;;;6.56;67.27
43621;BME280;29213;50.770;7.298;2022-11-24T07:00:55;100125.19;;;6.70;67.23
43621;BME280;29213;50.770;7.298;2022-11-24T07:03:21;100115.00;;;6.75;67.01
43621;BME280;29213;50.770;7.298;2022-11-24T07:05:47;100104.16;;;6.68;67.19
43621;BME280;29213;50.770;7.298;2022-11-24T07:08:12;100094.59;;;6.58;67.01
43621;BME280;29213;50.770;7.298;2022-11-24T07:10:37;100130.16;;;6.73;66.98
43621;BME280;29213;50.770;7.298;2022-11-24T07:13:06;100180.78;;;7.06;67.11
43621;BME280;29213;50.770;7.298;2022-11-24T07:15:32;100123.28;;;6.62;67.02
43621;BME280;29213;50.770;7.298;2022-11-24T07:17:58;100181.78;;;7.05;67.08
43621;BME280;29213;50.770;7.298;2022-11-24T07:20:24;100198.72;;;7.13;66.92
43621;BME280;29213;50.770;7.298;2022-11-24T07:22:54;100133.41;;;6.67;66.36
43621;BME280;29213;50.770;7.298;2022-11-24T07:25:20;100109.41;;;6.50;66.70
43621;BME280;29213;50.770;7.298;2022-11-24T07:27:45;100215.31;;;7.15;66.73
43621;BME280;29213;50.770;7.298;2022-11-24T07:30:11;100173.38;;;6.92;66.96
43621;BME280;29213;50.770;7.298;2022-11-24T07:32:36;100197.00;;;7.03;67.01
43621;BME280;29213;50.770;7.298;2022-11-24T07:35:02;100075.88;;;6.23;66.83
43621;BME280;29213;50.770;7.298;2022-11-24T07:37:27;100112.22;;;6.49;66.68
43621;BME280;29213;50.770;7.298;2022-11-24T07:39:53;100195.09;;;6.95;66.67
43621;BME280;29213;50.770;7.298;2022-11-24T07:42:18;100231.88;;;7.17;66.94
43621;BME280;29213;50.770;7.298;2022-11-24T07:44:44;100222.72;;;7.66;71.99
43621;BME280;29213;50.770;7.298;2022-11-24T07:47:09;100151.66;;;7.69;68.13
43621;BME280;29213;50.770;7.298;2022-11-24T07:49:35;100235.91;;;8.28;66.41
43621;BME280;29213;50.770;7.298;2022-11-24T07:52:00;100216.31;;;8.03;65.81
43621;BME280;29213;50.770;7.298;2022-11-24T07:54:25;100225.25;;;7.94;65.20
43621;BME280;29213;50.770;7.298;2022-11-24T07:56:51;100244.09;;;7.90;65.38
43621;BME280;29213;50.770;7.298;2022-11-24T07:59:16;100121.25;;;7.11;65.24
43621;BME280;29213;50.770;7.298;2022-11-24T08:01:42;100173.91;;;7.32;65.24
43621;BME280;29213;50.770;7.298;2022-11-24T08:04:07;100143.25;;;7.11;65.49
43621;BME280;29213;50.770;7.298;2022-11-24T08:06:32;100215.91;;;7.45;65.22
43621;BME280;29213;50.770;7.298;2022-11-24T08:08:58;100273.13;;;7.74;65.56
43621;BME280;29213;50.770;7.298;2022-11-24T08:11:25;100278.75;;;7.71;65.24
43621;BME280;29213;50.770;7.298;2022-11-24T08:13:51;100259.22;;;7.54;65.60
43621;BME280;29213;50.770;7.298;2022-11-24T08:16:18;100287.28;;;7.65;65.70
43621;BME280;29213;50.770;7.298;2022-11-24T08:18:48;100281.47;;;7.61;65.38
43621;BME280;29213;50.770;7.298;2022-11-24T08:21:14;100262.09;;;7.42;65.65
43621;BME280;29213;50.770;7.298;2022-11-24T08:23:40;100288.06;;;7.57;65.80
43621;BME280;29213;50.770;7.298;2022-11-24T08:26:12;100227.56;;;7.16;65.63
43621;BME280;29213;50.770;7.298;2022-11-24T08:28:38;100203.03;;;6.95;65.81
43621;BME280;29213;50.770;7.298;2022-11-24T08:31:06;100173.34;;;6.74;65.94
43621;BME280;29213;50.770;7.298;2022-11-24T08:33:31;100277.47;;;7.39;65.89
43621;BME280;29213;50.770;7.298;2022-11-24T08:36:05;100261.94;;;7.26;65.81
43621;BME280;29213;50.770;7.298;2022-11-24T08:38:30;100230.13;;;7.07;66.40
43621;BME280;29213;50.770;7.298;2022-11-24T08:41:04;100313.34;;;7.51;66.38
43621;BME280;29213;50.770;7.298;2022-11-24T08:43:30;100242.53;;;7.07;66.45
43621;BME280;29213;50.770;7.298;2022-11-24T08:45:59;100307.00;;;7.44;66.47
43621;BME280;29213;50.770;7.298;2022-11-24T08:48:25;100228.47;;;7.06;66.08
43621;BME280;29213;50.770;7.298;2022-11-24T08:50:56;100321.38;;;7.59;66.07
43621;BME280;29213;50.770;7.298;2022-11-24T08:53:23;100324.41;;;7.65;66.34
43621;BME280;29213;50.770;7.298;2022-11-24T08:55:58;100322.13;;;7.70;66.23
43621;BME280;29213;50.770;7.298;2022-11-24T08:58:24;100333.28;;;7.73;65.91
43621;BME280;29213;50.770;7.298;2022-11-24T09:01:11;100338.25;;;7.76;65.83
43621;BME280;29213;50.770;7.298;2022-11-24T09:03:38;100337.75;;;7.73;65.44
43621;BME280;29213;50.770;7.298;2022-11-24T09:06:05;100343.03;;;7.73;65.78
43621;BME280;29213;50.770;7.298;2022-11-24T09:08:32;100348.19;;;7.74;65.67
43621;BME280;29213;50.770;7.298;2022-11-24T09:10:59;100347.06;;;7.77;65.73
43621;BME280;29213;50.770;7.298;2022-11-24T09:13:25;100353.50;;;7.74;65.15
43621;BME280;29213;50.770;7.298;2022-11-24T09:15:50;100358.34;;;7.79;65.49
43621;BME280;29213;50.770;7.298;2022-11-24T09:18:16;100360.19;;;7.79;65.41
43621;BME280;29213;50.770;7.298;2022-11-24T09:20:42;100365.84;;;7.84;65.20
43621;BME280;29213;50.770;7.298;2022-11-24T09:23:08;100363.75;;;7.87;64.67
43621;BME280;29213;50.770;7.298;2022-11-24T09:25:34;100360.75;;;7.90;64.80
43621;BME280;29213;50.770;7.298;2022-11-24T09:27:59;100371.38;;;7.90;64.76
43621;BME280;29213;50.770;7.298;2022-11-24T09:30:25;100375.84;;;7.90;64.53
43621;BME280;29213;50.770;7.298;2022-11-24T09:32:54;100379.56;;;7.97;64.53
43621;BME280;29213;50.770;7.298;2022-11-24T09:35:20;100384.03;;;7.97;63.87
43621;BME280;29213;50.770;7.298;2022-11-24T09:37:57;100390.16;;;7.97;64.17
43621;BME280;29213;50.770;7.298;2022-11-24T09:40:22;100356.69;;;7.78;63.95
43621;BME280;29213;50.770;7.298;2022-11-24T09:43:11;100398.41;;;8.04;63.82
43621;BME280;29213;50.770;7.298;2022-11-24T09:45:50;100386.47;;;7.90;63.39
43621;BME280;29213;50.770;7.298;2022-11-24T09:48:27;100376.22;;;7.77;63.54
43621;BME280;29213;50.770;7.298;2022-11-24T09:50:56;100373.88;;;7.74;63.39
43621;BME280;29213;50.770;7.298;2022-11-24T09:53:36;100419.88;;;8.01;63.93
43621;BME280;29213;50.770;7.298;2022-11-24T09:56:25;100415.25;;;8.03;63.86
43621;BME280;29213;50.770;7.298;2022-11-24T09:59:06;100343.13;;;7.63;63.92
43621;BME280;29213;50.770;7.298;2022-11-24T10:01:38;100413.38;;;8.13;64.12
43621;BME280;29213;50.770;7.298;2022-11-24T10:04:21;100413.38;;;8.13;63.57
43621;BME280;29213;50.770;7.298;2022-11-24T10:07:13;100429.00;;;8.16;63.61
43621;BME280;29213;50.770;7.298;2022-11-24T10:26:50;100441.25;;;8.54;62.62
43621;BME280;29213;50.770;7.298;2022-11-24T10:31:43;100372.53;;;8.24;61.42
43621;BME280;29213;50.770;7.298;2022-11-24T10:34:16;100401.38;;;8.46;60.82
43621;BME280;29213;50.770;7.298;2022-11-24T10:36:46;100347.22;;;8.12;60.93
43621;BME280;29213;50.770;7.298;2022-11-24T10:39:18;100441.38;;;8.70;60.64
43621;BME280;29213;50.770;7.298;2022-11-24T10:41:59;100436.75;;;8.73;60.13
43621;BME280;29213;50.770;7.298;2022-11-24T10:44:27;100445.13;;;8.86;60.22
43621;BME280;29213;50.770;7.298;2022-11-24T10:46:53;100439.19;;;8.92;60.76
43621;BME280;29213;50.770;7.298;2022-11-24T10:49:28;100443.06;;;8.98;60.30
43621;BME280;29213;50.770;7.298;2022-11-24T10:54:32;100391.19;;;8.86;60.93
43621;BME280;29213;50.770;7.298;2022-11-24T10:56:59;100348.56;;;8.61;59.67
43621;BME280;29213;50.770;7.298;2022-11-24T10:59:34;100453.66;;;9.25;59.87
43621;BME280;29213;50.770;7.298;2022-11-24T11:02:02;100454.16;;;9.28;59.92
43621;BME280;29213;50.770;7.298;2022-11-24T11:04:30;100427.16;;;9.06;59.33
43621;BME280;29213;50.770;7.298;2022-11-24T11:07:26;100453.28;;;9.19;59.32
43621;BME280;29213;50.770;7.298;2022-11-24T11:10:18;100459.47;;;9.28;59.06
43621;BME280;29213;50.770;7.298;2022-11-24T11:12:43;100352.22;;;8.68;58.96
43621;BME280;29213;50.770;7.298;2022-11-24T11:15:24;100385.69;;;8.87;58.59
43621;BME280;29213;50.770;7.298;2022-11-24T11:17:50;100435.19;;;9.23;56.61
43621;BME280;29213;50.770;7.298;2022-11-24T11:20:27;100417.09;;;9.18;57.20
43621;BME280;29213;50.770;7.298;2022-11-24T11:22:54;100385.78;;;9.04;57.82
43621;BME280;29213;50.770;7.298;2022-11-24T11:25:30;100458.31;;;9.57;57.80
43621;BME280;29213;50.770;7.298;2022-11-24T11:33:24;100473.50;;;9.82;58.01
43621;BME280;29213;50.770;7.298;2022-11-24T11:35:50;100473.06;;;9.86;56.96
43621;BME280;29213;50.770;7.298;2022-11-24T11:38:17;100449.53;;;9.65;55.53
43621;BME280;29213;50.770;7.298;2022-11-24T11:40:44;100476.66;;;9.77;55.09
43621;BME280;29213;50.770;7.298;2022-11-24T11:43:33;100477.50;;;9.78;54.60
43621;BME280;29213;50.770;7.298;2022-11-24T11:46:10;100475.34;;;9.81;55.18
43621;BME280;29213;50.770;7.298;2022-11-24T11:48:39;100477.53;;;9.86;55.42
43621;BME280;29213;50.770;7.298;2022-11-24T11:51:34;100479.53;;;9.92;55.73
43621;BME280;29213;50.770;7.298;2022-11-24T11:54:10;100376.28;;;9.36;55.19
43621;BME280;29213;50.770;7.298;2022-11-24T11:56:47;100434.91;;;9.61;54.21
43621;BME280;29213;50.770;7.298;2022-11-24T11:59:37;100462.88;;;9.73;55.34
43621;BME280;29213;50.770;7.298;2022-11-24T12:02:22;100482.88;;;9.94;55.55
43621;BME280;29213;50.770;7.298;2022-11-24T12:04:58;100428.75;;;9.69;55.26
43621;BME280;29213;50.770;7.298;2022-11-24T12:07:31;100483.53;;;10.05;54.63
43621;BME280;29213;50.770;7.298;2022-11-24T12:15:28;100481.41;;;10.16;53.29
43621;BME280;29213;50.770;7.298;2022-11-24T12:18:10;100484.25;;;10.15;54.08
43621;BME280;29213;50.770;7.298;2022-11-24T12:21:09;100441.28;;;9.93;53.29
43621;BME280;29213;50.770;7.298;2022-11-24T12:34:50;100480.94;;;10.54;53.79
43621;BME280;29213;50.770;7.298;2022-11-24T12:40:12;100490.78;;;10.54;53.26
43621;BME280;29213;50.770;7.298;2022-11-24T12:42:49;100478.28;;;10.38;52.64
43621;BME280;29213;50.770;7.298;2022-11-24T12:45:23;100482.63;;;10.47;53.82
43621;BME280;29213;50.770;7.298;2022-11-24T12:48:13;100458.13;;;10.35;53.29
43621;BME280;29213;50.770;7.298;2022-11-24T12:50:44;100492.63;;;10.62;52.81
43621;BME280;29213;50.770;7.298;2022-11-24T12:53:22;100439.50;;;10.35;53.25
43621;BME280;29213;50.770;7.298;2022-11-24T12:55:49;100461.31;;;10.64;52.50
43621;BME280;29213;50.770;7.298;2022-11-24T12:58:38;100475.31;;;10.91;52.48
43621;BME280;29213;50.770;7.298;2022-11-24T13:01:11;100477.13;;;10.90;50.74
43621;BME280;29213;50.770;7.298;2022-11-24T13:04:04;100444.66;;;10.70;52.12
43621;BME280;29213;50.770;7.298;2022-11-24T13:06:51;100473.31;;;10.85;50.75
43621;BME280;29213;50.770;7.298;2022-11-24T13:09:18;100448.16;;;10.70;52.07
43621;BME280;29213;50.770;7.298;2022-11-24T13:11:45;100463.00;;;10.81;51.92
43621;BME280;29213;50.770;7.298;2022-11-24T13:14:15;100474.31;;;10.92;51.77
43621;BME280;29213;50.770;7.298;2022-11-24T13:16:50;100399.09;;;10.40;51.65
43621;BME280;29213;50.770;7.298;2022-11-24T13:19:19;100425.72;;;10.56;51.57
43621;BME280;29213;50.770;7.298;2022-11-24T13:24:33;100443.66;;;10.71;51.95
43621;BME280;29213;50.770;7.298;2022-11-24T13:39:56;100499.97;;;10.85;51.65
43621;BME280;29213;50.770;7.298;2022-11-24T13:42:23;100498.78;;;10.79;51.60
43621;BME280;29213;50.770;7.298;2022-11-24T13:45:00;100437.03;;;10.42;51.60
43621;BME280;29213;50.770;7.298;2022-11-24T13:47:44;100492.44;;;10.80;51.94
43621;BME280;29213;50.770;7.298;2022-11-24T13:52:50;100487.78;;;10.74;51.62
43621;BME280;29213;50.770;7.298;2022-11-24T13:55:28;100405.44;;;10.22;51.82
43621;BME280;29213;50.770;7.298;2022-11-24T14:00:57;100488.78;;;10.73;52.03
43621;BME280;29213;50.770;7.298;2022-11-24T14:03:27;100497.09;;;10.69;52.33
43621;BME280;29213;50.770;7.298;2022-11-24T14:05:54;100437.19;;;10.32;51.64
43621;BME280;29213;50.770;7.298;2022-11-24T14:08:23;100498.75;;;10.62;51.80
43621;BME280;29213;50.770;7.298;2022-11-24T14:10:51;100492.94;;;10.59;52.20
43621;BME280;29213;50.770;7.298;2022-11-24T14:13:26;100430.88;;;10.08;52.12
43621;BME280;29213;50.770;7.298;2022-11-24T14:16:11;100504.56;;;10.49;52.38
43621;BME280;29213;50.770;7.298;2022-11-24T14:18:40;100479.94;;;10.30;52.25
43621;BME280;29213;50.770;7.298;2022-11-24T14:21:33;100508.91;;;10.42;52.45